Airfield :
LOGIN :

Register | Disclaimer

   EN    FR    IT 

 










Legend :    VFR   Marginal VFR   IFR   Intensive IFR   Very Intensive IFR
Visi :
Ceiling :
>= 8 km
>= 3000ft
5 to 8 km
1000 to 3000 ft
1500m to 5 km
500 to 1000 ft
800 to 1500m
200 to 500 ft
< 800m
< 200 ft
Symbols :   Thunderstorms  Fog  Heavy snow  Heavy precipitations  Wind > 20 kt
SIGMETs :     Misc.  Thunderstorms  Icing  Turbulence  Mountain Waves  Volcanic Ashes







- Airport Elevation : 755 ft
- IATA code : DRS


EDDC - Dresden Klotzsche

CURRENT METAR :
  • 230850Z 14008KT CAVOK 09/04 Q1009 NOSIG

EXPIRED METARs :
  • 230820Z 15009KT CAVOK 07/03 Q1009 NOSIG
  • 230750Z 16011KT CAVOK 06/03 Q1009 NOSIG
  • 230720Z 16014KT CAVOK 06/03 Q1009 NOSIG
  • 230650Z 16015KT CAVOK 06/02 Q1009 NOSIG
  • 230620Z 16013KT CAVOK 06/03 Q1008 NOSIG

TAF TAF EDDC
Valid from the 23 at 06:00 until the 24 at 06:00 UTC


230500Z 2306/2406 16012KT CAVOK
BECMG 2307/2310 15015G25KT
BECMG 2321/2324 18010KT
No reported NOTAMs for that airfield.



MET'MAP, your aeronautical weather chart ! - Copyright ORBIFLY December 2007 - Disclaimer

ORBIFLY MET'MAP TEAM :

Programming & Development : Alexandra Zaïnal
Concept & Development : Baudouin d'Aumeries
Co-Development & Prog : Marc-Olivier Méhu
Technical & hardware support : Manuel Goepfert

Contact : metmap@orbifly.com




SOURCES & CREDITS :

   NOAA